createdAt,value
2022-08-17T00:02:05.801Z,20.60
2022-08-17T00:04:51.203Z,20.55
2022-08-17T00:07:17.709Z,20.54
2022-08-17T00:09:44.266Z,20.51
2022-08-17T00:12:43.611Z,20.48
2022-08-17T00:14:57.414Z,20.46
2022-08-17T00:17:23.942Z,20.43
2022-08-17T00:19:50.423Z,20.40
2022-08-17T00:22:34.758Z,20.38
2022-08-17T00:25:09.616Z,20.36
2022-08-17T00:27:36.981Z,20.33
2022-08-17T00:30:06.960Z,20.30
2022-08-17T00:33:12.041Z,20.26
2022-08-17T00:35:29.144Z,20.23
2022-08-17T00:37:55.851Z,20.20
2022-08-17T00:40:24.743Z,20.16
2022-08-17T00:42:53.410Z,20.14
2022-08-17T00:45:20.615Z,20.10
2022-08-17T00:47:47.745Z,20.09
2022-08-17T00:50:19.059Z,20.07
2022-08-17T00:52:52.498Z,20.04
2022-08-17T00:55:20.481Z,20.02
2022-08-17T00:57:53.459Z,20.01
2022-08-17T01:00:29.912Z,19.98
2022-08-17T01:03:03.390Z,19.96
2022-08-17T01:05:32.539Z,19.93
2022-08-17T01:08:00.933Z,19.91
2022-08-17T01:11:00.628Z,19.88
2022-08-17T01:13:23.447Z,19.85
2022-08-17T01:16:01.161Z,19.84
2022-08-17T01:18:28.225Z,19.82
2022-08-17T01:20:57.626Z,19.80
2022-08-17T01:23:25.656Z,19.77
2022-08-17T01:25:57.751Z,19.76
2022-08-17T01:28:52.688Z,19.74
2022-08-17T01:31:16.509Z,19.73
2022-08-17T01:33:43.284Z,19.70
2022-08-17T01:36:10.057Z,19.69
2022-08-17T01:38:38.079Z,19.68
2022-08-17T01:41:12.500Z,19.65
2022-08-17T01:43:50.979Z,19.62
2022-08-17T01:46:24.224Z,19.60
2022-08-17T01:48:51.414Z,19.56
2022-08-17T01:51:19.127Z,19.53
2022-08-17T01:53:51.926Z,19.52
2022-08-17T01:56:21.516Z,19.50
2022-08-17T01:58:48.470Z,19.47
2022-08-17T02:01:22.618Z,19.45
2022-08-17T02:03:54.541Z,19.42
2022-08-17T02:06:30.464Z,19.40
2022-08-17T02:09:02.652Z,19.38
2022-08-17T02:11:32.295Z,19.36
2022-08-17T02:14:02.525Z,19.35
2022-08-17T02:16:37.575Z,19.32
2022-08-17T02:19:15.605Z,19.30
2022-08-17T02:21:45.154Z,19.27
2022-08-17T02:24:17.717Z,19.26
2022-08-17T02:27:04.986Z,19.23
2022-08-17T02:29:31.554Z,19.22
2022-08-17T02:31:58.606Z,19.20
2022-08-17T02:34:25.724Z,19.19
2022-08-17T02:36:53.417Z,19.16
2022-08-17T02:39:20.269Z,19.15
2022-08-17T02:41:46.862Z,19.14
2022-08-17T02:44:13.608Z,19.12
2022-08-17T02:47:00.669Z,19.08
2022-08-17T02:49:27.165Z,19.05
2022-08-17T02:51:53.714Z,19.03
2022-08-17T02:54:41.083Z,19.00
2022-08-17T02:57:06.933Z,18.99
2022-08-17T02:59:33.467Z,18.96
2022-08-17T03:02:00.039Z,18.93
2022-08-17T03:04:26.570Z,18.88
2022-08-17T03:06:53.135Z,18.86
2022-08-17T03:09:19.673Z,18.83
2022-08-17T03:11:46.197Z,18.80
2022-08-17T03:14:13.130Z,18.78
2022-08-17T03:16:40.825Z,18.76
2022-08-17T03:19:09.003Z,18.74
2022-08-17T03:21:36.362Z,18.72
2022-08-17T03:24:08.772Z,18.70
2022-08-17T03:26:35.776Z,18.66
2022-08-17T03:29:02.323Z,18.64
2022-08-17T03:31:28.888Z,18.63
2022-08-17T03:33:56.249Z,18.61
2022-08-17T03:36:22.801Z,18.58
2022-08-17T03:38:49.372Z,18.55
2022-08-17T03:41:17.830Z,18.53
2022-08-17T03:43:44.352Z,18.52
2022-08-17T03:46:34.409Z,18.49
2022-08-17T03:49:23.738Z,18.47
2022-08-17T03:52:08.671Z,18.46
2022-08-17T03:54:53.794Z,18.44
2022-08-17T03:57:20.337Z,18.42
2022-08-17T03:59:47.664Z,18.40
2022-08-17T04:02:20.721Z,18.38
2022-08-17T04:04:51.010Z,18.38
2022-08-17T04:07:22.406Z,18.38
2022-08-17T04:09:49.298Z,18.36
2022-08-17T04:12:18.878Z,18.35
2022-08-17T04:14:52.909Z,18.35
2022-08-17T04:17:22.750Z,18.34
2022-08-17T04:19:49.271Z,18.34
2022-08-17T04:22:30.132Z,18.33
2022-08-17T04:25:04.817Z,18.34
2022-08-17T04:27:31.795Z,18.35
2022-08-17T04:29:58.695Z,18.35
2022-08-17T04:33:04.386Z,18.37
2022-08-17T04:35:11.919Z,18.39
2022-08-17T04:37:38.407Z,18.40
2022-08-17T04:40:27.167Z,18.42
2022-08-17T04:43:05.675Z,18.43
2022-08-17T04:45:32.783Z,18.46
2022-08-17T04:48:00.745Z,18.49
2022-08-17T04:50:27.558Z,18.50
2022-08-17T04:52:56.027Z,18.54
2022-08-17T04:55:22.746Z,18.55
2022-08-17T04:57:49.321Z,18.61
2022-08-17T05:00:15.892Z,18.64
2022-08-17T05:02:49.769Z,18.68
2022-08-17T05:05:26.608Z,18.73
2022-08-17T05:08:00.059Z,18.78
2022-08-17T05:10:30.017Z,18.83
2022-08-17T05:13:08.721Z,18.88
2022-08-17T05:15:39.407Z,18.95
2022-08-17T05:18:11.881Z,19.00
2022-08-17T05:20:40.104Z,19.04
2022-08-17T05:23:10.630Z,19.11
2022-08-17T05:25:41.088Z,19.16
2022-08-17T05:28:08.746Z,19.21
2022-08-17T05:30:38.201Z,19.25
2022-08-17T05:33:08.134Z,19.29
2022-08-17T05:35:37.632Z,19.35
2022-08-17T05:38:05.138Z,19.40
2022-08-17T05:40:32.822Z,19.46
2022-08-17T05:43:30.619Z,19.54
2022-08-17T05:46:10.762Z,19.62
2022-08-17T05:48:44.653Z,19.70
2022-08-17T05:51:41.951Z,19.77
2022-08-17T05:54:14.085Z,19.88
2022-08-17T05:56:43.358Z,19.96
2022-08-17T05:59:16.607Z,20.06
2022-08-17T06:02:06.320Z,20.18
2022-08-17T06:04:58.822Z,20.31
2022-08-17T06:07:36.411Z,20.46
2022-08-17T06:10:39.449Z,20.59
2022-08-17T06:13:43.198Z,20.73
2022-08-17T06:16:25.933Z,20.88
2022-08-17T06:19:06.217Z,21.02
2022-08-17T06:21:40.950Z,21.13
2022-08-17T06:24:26.298Z,21.25
2022-08-17T06:26:55.632Z,21.32
2022-08-17T06:29:46.304Z,21.41
2022-08-17T06:32:14.700Z,21.49
2022-08-17T06:34:43.662Z,21.55
2022-08-17T06:37:22.008Z,21.63
2022-08-17T06:40:33.732Z,21.72
2022-08-17T06:43:32.671Z,21.83
2022-08-17T06:46:06.284Z,21.90
2022-08-17T06:49:11.572Z,22.00
2022-08-17T06:51:46.399Z,22.05
2022-08-17T06:54:16.877Z,22.14
2022-08-17T06:56:55.312Z,22.22
2022-08-17T06:59:54.263Z,22.33
2022-08-17T07:02:29.480Z,22.42
2022-08-17T07:05:17.016Z,22.53
2022-08-17T07:08:09.248Z,22.59
2022-08-17T07:10:52.743Z,22.66
2022-08-17T07:13:41.900Z,22.71
2022-08-17T07:16:27.985Z,22.74
2022-08-17T07:18:57.230Z,22.80
2022-08-17T07:21:47.551Z,22.88
2022-08-17T07:24:39.521Z,22.96
2022-08-17T07:27:27.962Z,23.05
2022-08-17T07:29:58.874Z,23.15
2022-08-17T07:32:32.514Z,23.25
2022-08-17T07:35:22.057Z,23.36
2022-08-17T07:38:25.068Z,23.52
2022-08-17T07:41:02.533Z,23.66
2022-08-17T07:43:31.157Z,23.79
2022-08-17T07:46:37.668Z,23.91
2022-08-17T07:49:05.047Z,24.05
2022-08-17T07:51:32.701Z,24.18
2022-08-17T07:54:14.362Z,24.29
2022-08-17T07:56:53.784Z,24.39
2022-08-17T07:59:23.654Z,24.46
2022-08-17T08:01:57.924Z,24.51
2022-08-17T08:07:16.352Z,24.67
2022-08-17T08:09:46.929Z,24.80
2022-08-17T08:12:34.032Z,25.00
2022-08-17T08:15:15.261Z,25.20
2022-08-17T08:17:57.518Z,25.42
2022-08-17T08:20:51.678Z,25.60
2022-08-17T08:23:39.232Z,25.85
2022-08-17T08:26:20.294Z,26.03
2022-08-17T08:29:01.587Z,26.16
2022-08-17T08:31:46.129Z,26.25
2022-08-17T08:35:00.800Z,26.36
2022-08-17T08:37:33.730Z,26.47
2022-08-17T08:40:15.781Z,26.56
2022-08-17T08:43:08.831Z,26.67
2022-08-17T08:46:19.819Z,26.91
2022-08-17T08:49:18.656Z,27.11
2022-08-17T08:52:03.829Z,27.28
2022-08-17T08:54:45.813Z,27.43
2022-08-17T08:57:30.985Z,27.64
2022-08-17T09:00:18.898Z,27.78
2022-08-17T09:03:09.828Z,27.82
2022-08-17T09:05:56.220Z,27.81
2022-08-17T09:08:50.465Z,27.78
2022-08-17T09:11:24.516Z,27.78
2022-08-17T09:13:58.871Z,27.77
2022-08-17T09:16:30.842Z,27.75
2022-08-17T09:19:05.004Z,27.75
2022-08-17T09:21:48.675Z,27.78
2022-08-17T09:24:34.210Z,27.82
2022-08-17T09:27:11.254Z,27.85
2022-08-17T09:29:43.022Z,27.85
2022-08-17T09:32:28.435Z,27.90
2022-08-17T09:35:01.907Z,28.02
2022-08-17T09:37:53.105Z,28.15
2022-08-17T09:40:27.196Z,28.29
2022-08-17T09:43:11.500Z,28.43
2022-08-17T09:45:50.734Z,28.58
2022-08-17T09:48:25.010Z,28.70
2022-08-17T09:51:07.062Z,28.81
2022-08-17T09:53:37.140Z,28.91
2022-08-17T09:56:17.087Z,29.02
2022-08-17T09:59:08.307Z,29.10
2022-08-17T10:01:39.863Z,29.17
2022-08-17T10:04:40.881Z,29.28
2022-08-17T10:07:15.229Z,29.29
2022-08-17T10:10:07.768Z,29.32
2022-08-17T10:13:03.197Z,29.33
2022-08-17T10:15:53.303Z,29.35
2022-08-17T10:18:22.763Z,29.35
2022-08-17T10:21:23.403Z,29.36
2022-08-17T10:24:15.161Z,29.38
2022-08-17T10:26:56.142Z,29.41
2022-08-17T10:29:48.655Z,29.44
2022-08-17T10:32:40.784Z,29.47
2022-08-17T10:35:31.288Z,29.52
2022-08-17T10:38:28.947Z,29.61
2022-08-17T10:41:05.859Z,29.73
2022-08-17T10:44:36.967Z,29.79
2022-08-17T10:47:09.519Z,29.77
2022-08-17T10:49:38.425Z,29.70
2022-08-17T10:52:19.974Z,29.61
2022-08-17T10:55:06.645Z,29.54
2022-08-17T10:57:37.464Z,29.50
2022-08-17T11:00:17.084Z,29.49
2022-08-17T11:02:53.461Z,29.57
2022-08-17T11:05:44.205Z,29.64
2022-08-17T11:08:26.149Z,29.64
2022-08-17T11:10:52.626Z,29.74
2022-08-17T11:13:33.246Z,29.93
2022-08-17T11:16:35.100Z,30.09
2022-08-17T11:19:39.071Z,30.21
2022-08-17T11:22:50.484Z,30.29
2022-08-17T11:25:33.686Z,30.40
2022-08-17T11:28:15.564Z,30.53
2022-08-17T11:30:51.430Z,30.56
2022-08-17T11:33:29.959Z,30.57
2022-08-17T11:36:18.635Z,30.62
2022-08-17T11:39:22.311Z,30.68
2022-08-17T11:41:55.023Z,30.74
2022-08-17T11:44:57.850Z,30.82
2022-08-17T11:48:26.513Z,30.88
2022-08-17T11:51:19.288Z,30.90
2022-08-17T11:53:45.944Z,30.95
2022-08-17T11:56:41.092Z,30.96
2022-08-17T11:59:44.874Z,30.89
2022-08-17T12:02:47.526Z,30.79
2022-08-17T12:05:17.517Z,30.78
2022-08-17T12:07:56.819Z,30.81
2022-08-17T12:10:31.919Z,30.85
2022-08-17T12:13:01.845Z,30.84
2022-08-17T12:15:37.385Z,30.84
2022-08-17T12:18:04.173Z,30.83
2022-08-17T12:20:40.234Z,30.83
2022-08-17T12:23:24.283Z,30.85
2022-08-17T12:26:00.916Z,30.90
2022-08-17T12:28:31.053Z,30.99
2022-08-17T12:31:05.911Z,31.11
2022-08-17T12:33:35.470Z,31.14
2022-08-17T12:36:06.322Z,31.20
2022-08-17T12:38:35.983Z,31.38
2022-08-17T12:41:24.403Z,31.61
2022-08-17T12:43:58.650Z,31.93
2022-08-17T12:46:25.175Z,32.18
2022-08-17T12:48:59.061Z,32.35
2022-08-17T12:51:27.565Z,32.48
2022-08-17T12:53:55.462Z,32.45
2022-08-17T12:56:21.986Z,32.36
2022-08-17T12:58:55.547Z,32.37
2022-08-17T13:01:24.910Z,32.37
2022-08-17T13:03:55.126Z,32.30
2022-08-17T13:06:34.128Z,32.30
2022-08-17T13:09:12.109Z,32.39
2022-08-17T13:11:55.121Z,32.52
2022-08-17T13:14:21.767Z,32.60
2022-08-17T13:16:59.433Z,32.65
2022-08-17T13:19:40.320Z,32.73
2022-08-17T13:22:12.418Z,32.84
2022-08-17T13:24:53.125Z,33.10
2022-08-17T13:27:22.003Z,33.02
2022-08-17T13:29:57.476Z,32.94
2022-08-17T13:32:44.137Z,32.91
2022-08-17T13:35:39.903Z,32.96
2022-08-17T13:38:14.249Z,33.01
2022-08-17T13:40:50.674Z,33.01
2022-08-17T13:43:48.487Z,32.97
2022-08-17T13:46:21.737Z,32.85
2022-08-17T13:48:58.509Z,32.73
2022-08-17T13:51:54.198Z,32.62
2022-08-17T13:54:32.269Z,32.60
2022-08-17T13:57:06.630Z,32.60
2022-08-17T13:59:55.249Z,32.60
2022-08-17T14:02:27.513Z,32.47
2022-08-17T14:04:56.625Z,32.23
2022-08-17T14:07:33.895Z,32.02
2022-08-17T14:10:09.252Z,31.85
2022-08-17T14:12:38.962Z,31.72
2022-08-17T14:15:06.449Z,31.58
2022-08-17T14:17:38.135Z,31.42
2022-08-17T14:20:09.181Z,31.28
2022-08-17T14:22:38.888Z,31.13
2022-08-17T14:25:10.312Z,30.99
2022-08-17T14:27:51.904Z,30.87
2022-08-17T14:30:20.055Z,30.73
2022-08-17T14:32:48.966Z,30.63
2022-08-17T14:35:16.132Z,30.55
2022-08-17T14:37:45.596Z,30.49
2022-08-17T14:40:13.972Z,30.45
2022-08-17T14:42:43.317Z,30.42
2022-08-17T14:45:29.957Z,30.37
2022-08-17T14:47:59.318Z,30.33
2022-08-17T14:50:27.070Z,30.29
2022-08-17T14:52:55.997Z,30.24
2022-08-17T14:55:24.800Z,30.18
2022-08-17T14:57:51.449Z,30.09
2022-08-17T15:00:18.445Z,30.02
2022-08-17T15:02:49.063Z,29.93
2022-08-17T15:05:17.113Z,29.83
2022-08-17T15:07:44.526Z,29.75
2022-08-17T15:10:13.529Z,29.67
2022-08-17T15:12:41.070Z,29.63
2022-08-17T15:15:10.031Z,29.60
2022-08-17T15:17:43.858Z,29.58
2022-08-17T15:20:19.055Z,29.58
2022-08-17T15:22:49.753Z,29.54
2022-08-17T15:25:17.683Z,29.50
2022-08-17T15:27:44.275Z,29.49
2022-08-17T15:30:11.809Z,29.47
2022-08-17T15:32:41.081Z,29.42
2022-08-17T15:35:18.411Z,29.38
2022-08-17T15:37:45.373Z,29.35
2022-08-17T15:40:13.052Z,29.33
2022-08-17T15:42:40.967Z,29.30
2022-08-17T15:45:12.407Z,29.28
2022-08-17T15:47:39.364Z,29.22
2022-08-17T15:50:07.865Z,29.02
2022-08-17T15:52:40.333Z,28.84
2022-08-17T15:55:10.782Z,28.65
2022-08-17T15:57:37.589Z,28.47
2022-08-17T16:00:06.949Z,28.25
2022-08-17T16:03:45.302Z,28.03
2022-08-17T16:05:28.158Z,27.88
2022-08-17T16:07:56.673Z,27.75
2022-08-17T16:10:34.575Z,27.62
2022-08-17T16:13:02.510Z,27.55
2022-08-17T16:15:31.261Z,27.45
2022-08-17T16:17:57.871Z,27.31
2022-08-17T16:20:25.929Z,27.26
2022-08-17T16:22:52.679Z,27.49
2022-08-17T16:25:49.227Z,27.49
2022-08-17T16:28:11.390Z,27.49
2022-08-17T16:30:38.607Z,27.52
2022-08-17T16:33:06.031Z,27.74
2022-08-17T16:35:32.654Z,28.79
2022-08-17T16:37:59.220Z,28.91
2022-08-17T16:40:29.629Z,29.86
2022-08-17T16:42:57.950Z,31.63
2022-08-17T16:45:39.877Z,32.73
2022-08-17T16:48:07.511Z,33.62
2022-08-17T16:50:34.390Z,33.78
2022-08-17T16:53:08.369Z,33.59
2022-08-17T16:55:35.861Z,33.13
2022-08-17T16:58:06.790Z,32.64
2022-08-17T17:00:34.482Z,32.21
2022-08-17T17:03:19.638Z,31.86
2022-08-17T17:06:07.577Z,31.49
2022-08-17T17:08:43.657Z,31.09
2022-08-17T17:11:20.843Z,30.74
2022-08-17T17:14:01.734Z,30.33
2022-08-17T17:17:01.600Z,29.90
2022-08-17T17:19:38.012Z,29.57
2022-08-17T17:22:16.577Z,29.35
2022-08-17T17:24:51.637Z,29.28
2022-08-17T17:27:39.263Z,29.30
2022-08-17T17:30:14.669Z,29.36
2022-08-17T17:32:45.736Z,29.39
2022-08-17T17:35:33.838Z,29.28
2022-08-17T17:38:07.650Z,29.16
2022-08-17T17:40:41.732Z,29.07
2022-08-17T17:43:36.861Z,28.99
2022-08-17T17:46:27.321Z,28.84
2022-08-17T17:48:58.410Z,28.74
2022-08-17T17:52:07.159Z,28.62
2022-08-17T17:55:14.883Z,28.49
2022-08-17T17:57:55.709Z,28.39
2022-08-17T18:00:25.618Z,28.28
2022-08-17T18:03:00.969Z,28.17
2022-08-17T18:05:37.134Z,28.04
2022-08-17T18:08:32.047Z,27.89
2022-08-17T18:11:37.070Z,27.72
2022-08-17T18:14:30.788Z,27.52
2022-08-17T18:16:59.952Z,27.36
2022-08-17T18:19:29.349Z,27.22
2022-08-17T18:22:14.507Z,27.07
2022-08-17T18:24:44.688Z,26.91
2022-08-17T18:27:32.926Z,26.75
2022-08-17T18:30:08.765Z,26.59
2022-08-17T18:32:38.492Z,26.43
2022-08-17T18:35:08.075Z,26.29
2022-08-17T18:37:48.791Z,26.10
2022-08-17T18:40:18.425Z,25.96
2022-08-17T18:42:57.218Z,25.83
2022-08-17T18:45:35.498Z,25.69
2022-08-17T18:48:02.586Z,25.58
2022-08-17T18:50:39.601Z,25.48
2022-08-17T18:53:26.687Z,25.34
2022-08-17T18:56:17.692Z,25.21
2022-08-17T18:58:54.717Z,25.12
2022-08-17T19:01:21.623Z,25.03
2022-08-17T19:04:28.056Z,24.88
2022-08-17T19:07:19.081Z,24.74
2022-08-17T19:09:50.902Z,24.65
2022-08-17T19:12:28.824Z,24.55
2022-08-17T19:14:57.524Z,24.46
2022-08-17T19:17:30.945Z,24.35
2022-08-17T19:20:12.508Z,24.25
2022-08-17T19:22:52.700Z,24.18
2022-08-17T19:25:27.093Z,24.08
2022-08-17T19:28:04.002Z,24.00
2022-08-17T19:30:33.126Z,23.93
2022-08-17T19:33:02.060Z,23.86
2022-08-17T19:35:45.934Z,23.78
2022-08-17T19:38:26.556Z,23.68
2022-08-17T19:41:05.481Z,23.59
2022-08-17T19:43:59.386Z,23.50
2022-08-17T19:46:31.659Z,23.44
2022-08-17T19:49:12.068Z,23.35
2022-08-17T19:51:47.403Z,23.27
2022-08-17T19:54:31.019Z,23.17
2022-08-17T19:57:27.288Z,23.11
2022-08-17T20:00:01.831Z,23.03
2022-08-17T20:02:41.719Z,22.95
2022-08-17T20:05:15.105Z,22.90
2022-08-17T20:07:56.588Z,22.86
2022-08-17T20:10:54.420Z,22.81
2022-08-17T20:13:33.534Z,22.77
2022-08-17T20:16:01.440Z,22.72
2022-08-17T20:18:37.850Z,22.66
2022-08-17T20:21:19.703Z,22.60
2022-08-17T20:23:58.481Z,22.55
2022-08-17T20:26:33.768Z,22.51
2022-08-17T20:29:12.144Z,22.49
2022-08-17T20:31:58.899Z,22.44
2022-08-17T20:34:25.399Z,22.40
2022-08-17T20:37:08.849Z,22.37
2022-08-17T20:39:49.471Z,22.31
2022-08-17T20:42:21.962Z,22.22
2022-08-17T20:44:51.673Z,22.14
2022-08-17T20:47:26.904Z,22.07
2022-08-17T20:50:02.868Z,22.01
2022-08-17T20:52:35.577Z,21.95
2022-08-17T20:55:04.485Z,21.91
2022-08-17T20:57:31.275Z,21.86
2022-08-17T21:00:15.332Z,21.78
2022-08-17T21:02:50.470Z,21.72
2022-08-17T21:05:34.567Z,21.68
2022-08-17T21:08:13.891Z,21.63
2022-08-17T21:10:44.425Z,21.57
2022-08-17T21:13:13.307Z,21.49
2022-08-17T21:15:51.668Z,21.42
2022-08-17T21:18:39.209Z,21.36
2022-08-17T21:21:06.494Z,21.31
2022-08-17T21:23:56.010Z,21.25
2022-08-17T21:26:38.991Z,21.20
2022-08-17T21:29:32.592Z,21.14
2022-08-17T21:32:03.140Z,21.08
2022-08-17T21:34:39.427Z,21.02
2022-08-17T21:37:29.361Z,20.98
2022-08-17T21:40:10.527Z,20.98
2022-08-17T21:42:44.527Z,20.94
2022-08-17T21:45:21.062Z,20.89
2022-08-17T21:47:50.663Z,20.85
2022-08-17T21:50:22.526Z,20.80
2022-08-17T21:52:54.021Z,20.76
2022-08-17T21:55:29.918Z,20.72
2022-08-17T21:58:13.635Z,20.69
2022-08-17T22:00:43.240Z,20.65
2022-08-17T22:03:23.503Z,20.61
2022-08-17T22:05:51.320Z,20.59
2022-08-17T22:08:21.014Z,20.54
2022-08-17T22:10:50.529Z,20.50
2022-08-17T22:13:17.614Z,20.47
2022-08-17T22:15:47.671Z,20.43
2022-08-17T22:18:21.523Z,20.39
2022-08-17T22:20:54.768Z,20.36
2022-08-17T22:23:58.860Z,20.31
2022-08-17T22:26:47.105Z,20.28
2022-08-17T22:29:44.713Z,20.25
2022-08-17T22:32:11.321Z,20.22
2022-08-17T22:34:38.976Z,20.20
2022-08-17T22:37:28.969Z,20.16
2022-08-17T22:39:59.561Z,20.13
2022-08-17T22:42:28.483Z,20.12
2022-08-17T22:44:55.074Z,20.10
2022-08-17T22:47:38.634Z,20.07
2022-08-17T22:50:14.083Z,20.03
2022-08-17T22:53:02.934Z,20.01
2022-08-17T22:55:50.620Z,19.98
2022-08-17T22:58:42.536Z,19.96
2022-08-17T23:01:32.290Z,19.92
2022-08-17T23:04:08.269Z,19.89
2022-08-17T23:06:36.764Z,19.85
2022-08-17T23:09:05.718Z,19.83
2022-08-17T23:11:48.728Z,19.80
2022-08-17T23:14:19.114Z,19.76
2022-08-17T23:16:46.661Z,19.74
2022-08-17T23:19:16.021Z,19.72
2022-08-17T23:21:46.679Z,19.70
2022-08-17T23:24:22.612Z,19.66
2022-08-17T23:26:49.126Z,19.64
2022-08-17T23:29:15.905Z,19.59
2022-08-17T23:31:42.756Z,19.56
2022-08-17T23:34:14.659Z,19.52
2022-08-17T23:36:41.505Z,19.50
2022-08-17T23:39:08.157Z,19.47
2022-08-17T23:41:39.871Z,19.43
2022-08-17T23:44:07.148Z,19.41
2022-08-17T23:46:34.712Z,19.40
2022-08-17T23:49:01.397Z,19.37
2022-08-17T23:51:31.651Z,19.34
2022-08-17T23:54:07.736Z,19.33
2022-08-17T23:56:40.095Z,19.30
2022-08-17T23:59:06.604Z,19.29
